sensor_id;sensor_type;location;lat;lon;timestamp;P1;durP1;ratioP1;P2;durP2;ratioP2
42146;SDS011;27815;43.410;11.852;2023-08-30T00:02:15;24.02;;;22.88;;
42146;SDS011;27815;43.410;11.852;2023-08-30T00:06:17;22.52;;;21.33;;
42146;SDS011;27815;43.410;11.852;2023-08-30T00:10:21;24.48;;;23.27;;
42146;SDS011;27815;43.410;11.852;2023-08-30T00:14:24;24.77;;;23.67;;
42146;SDS011;27815;43.410;11.852;2023-08-30T00:18:27;24.58;;;23.48;;
42146;SDS011;27815;43.410;11.852;2023-08-30T00:22:30;24.15;;;23.02;;
42146;SDS011;27815;43.410;11.852;2023-08-30T00:26:33;23.73;;;22.48;;
42146;SDS011;27815;43.410;11.852;2023-08-30T00:30:39;25.10;;;23.90;;
42146;SDS011;27815;43.410;11.852;2023-08-30T00:34:42;25.65;;;24.45;;
42146;SDS011;27815;43.410;11.852;2023-08-30T00:38:44;24.17;;;23.08;;
42146;SDS011;27815;43.410;11.852;2023-08-30T00:42:48;26.45;;;25.27;;
42146;SDS011;27815;43.410;11.852;2023-08-30T00:46:51;26.23;;;24.83;;
42146;SDS011;27815;43.410;11.852;2023-08-30T00:50:54;28.48;;;26.90;;
42146;SDS011;27815;43.410;11.852;2023-08-30T00:54:58;30.73;;;28.83;;
42146;SDS011;27815;43.410;11.852;2023-08-30T00:59:01;30.05;;;28.20;;
42146;SDS011;27815;43.410;11.852;2023-08-30T01:03:05;33.13;;;30.95;;
42146;SDS011;27815;43.410;11.852;2023-08-30T01:07:10;32.13;;;30.17;;
42146;SDS011;27815;43.410;11.852;2023-08-30T01:15:21;29.10;;;27.20;;
42146;SDS011;27815;43.410;11.852;2023-08-30T01:23:56;31.33;;;29.05;;
42146;SDS011;27815;43.410;11.852;2023-08-30T01:28:06;32.03;;;29.95;;
42146;SDS011;27815;43.410;11.852;2023-08-30T01:32:11;30.55;;;28.52;;
42146;SDS011;27815;43.410;11.852;2023-08-30T01:36:14;30.50;;;28.08;;
42146;SDS011;27815;43.410;11.852;2023-08-30T01:40:18;31.23;;;29.10;;
42146;SDS011;27815;43.410;11.852;2023-08-30T01:44:22;33.20;;;31.25;;
42146;SDS011;27815;43.410;11.852;2023-08-30T01:48:24;32.05;;;29.85;;
42146;SDS011;27815;43.410;11.852;2023-08-30T01:52:29;28.92;;;27.23;;
42146;SDS011;27815;43.410;11.852;2023-08-30T01:56:32;27.10;;;25.63;;
42146;SDS011;27815;43.410;11.852;2023-08-30T02:00:35;29.63;;;27.95;;
42146;SDS011;27815;43.410;11.852;2023-08-30T02:04:38;28.77;;;27.30;;
42146;SDS011;27815;43.410;11.852;2023-08-30T02:08:44;26.92;;;25.52;;
42146;SDS011;27815;43.410;11.852;2023-08-30T02:12:57;26.45;;;25.13;;
42146;SDS011;27815;43.410;11.852;2023-08-30T02:17:01;27.95;;;26.60;;
42146;SDS011;27815;43.410;11.852;2023-08-30T02:21:05;25.73;;;24.48;;
42146;SDS011;27815;43.410;11.852;2023-08-30T02:25:08;24.02;;;22.90;;
42146;SDS011;27815;43.410;11.852;2023-08-30T02:29:12;25.42;;;24.23;;
42146;SDS011;27815;43.410;11.852;2023-08-30T02:33:15;26.30;;;24.95;;
42146;SDS011;27815;43.410;11.852;2023-08-30T02:37:19;24.70;;;23.55;;
42146;SDS011;27815;43.410;11.852;2023-08-30T02:41:24;22.35;;;21.33;;
42146;SDS011;27815;43.410;11.852;2023-08-30T02:45:27;24.60;;;23.48;;
42146;SDS011;27815;43.410;11.852;2023-08-30T02:49:30;24.52;;;23.40;;
42146;SDS011;27815;43.410;11.852;2023-08-30T02:53:33;25.38;;;24.25;;
42146;SDS011;27815;43.410;11.852;2023-08-30T02:57:35;23.23;;;22.17;;
42146;SDS011;27815;43.410;11.852;2023-08-30T03:01:38;23.92;;;22.83;;
42146;SDS011;27815;43.410;11.852;2023-08-30T03:05:42;24.58;;;23.50;;
42146;SDS011;27815;43.410;11.852;2023-08-30T03:09:51;17.48;;;16.58;;
42146;SDS011;27815;43.410;11.852;2023-08-30T03:13:55;15.63;;;14.68;;
42146;SDS011;27815;43.410;11.852;2023-08-30T03:17:59;14.48;;;13.75;;
42146;SDS011;27815;43.410;11.852;2023-08-30T03:22:05;16.35;;;15.55;;
42146;SDS011;27815;43.410;11.852;2023-08-30T03:30:12;13.65;;;12.65;;
42146;SDS011;27815;43.410;11.852;2023-08-30T03:34:15;13.93;;;13.07;;
42146;SDS011;27815;43.410;11.852;2023-08-30T03:38:18;12.95;;;12.20;;
42146;SDS011;27815;43.410;11.852;2023-08-30T03:42:21;13.00;;;12.32;;
42146;SDS011;27815;43.410;11.852;2023-08-30T03:46:25;14.10;;;13.27;;
42146;SDS011;27815;43.410;11.852;2023-08-30T03:50:28;13.88;;;13.18;;
42146;SDS011;27815;43.410;11.852;2023-08-30T03:54:31;14.40;;;13.63;;
42146;SDS011;27815;43.410;11.852;2023-08-30T03:58:34;15.13;;;13.80;;
42146;SDS011;27815;43.410;11.852;2023-08-30T04:02:37;15.48;;;14.60;;
42146;SDS011;27815;43.410;11.852;2023-08-30T04:06:40;14.10;;;13.30;;
42146;SDS011;27815;43.410;11.852;2023-08-30T04:10:43;14.75;;;13.98;;
42146;SDS011;27815;43.410;11.852;2023-08-30T04:14:49;14.48;;;13.68;;
42146;SDS011;27815;43.410;11.852;2023-08-30T04:18:53;14.82;;;13.93;;
42146;SDS011;27815;43.410;11.852;2023-08-30T04:22:56;14.20;;;13.38;;
42146;SDS011;27815;43.410;11.852;2023-08-30T04:27:00;14.20;;;13.32;;
42146;SDS011;27815;43.410;11.852;2023-08-30T04:31:03;21.85;;;20.65;;
42146;SDS011;27815;43.410;11.852;2023-08-30T04:35:06;18.85;;;17.55;;
42146;SDS011;27815;43.410;11.852;2023-08-30T04:43:16;13.02;;;12.23;;
42146;SDS011;27815;43.410;11.852;2023-08-30T04:47:19;14.45;;;13.68;;
42146;SDS011;27815;43.410;11.852;2023-08-30T04:51:22;14.50;;;13.45;;
42146;SDS011;27815;43.410;11.852;2023-08-30T04:55:28;16.20;;;15.32;;
42146;SDS011;27815;43.410;11.852;2023-08-30T04:59:33;17.20;;;16.20;;
42146;SDS011;27815;43.410;11.852;2023-08-30T05:03:37;15.30;;;14.40;;
42146;SDS011;27815;43.410;11.852;2023-08-30T05:07:43;16.70;;;15.60;;
42146;SDS011;27815;43.410;11.852;2023-08-30T05:11:47;15.60;;;14.40;;
42146;SDS011;27815;43.410;11.852;2023-08-30T05:15:51;18.00;;;17.08;;
42146;SDS011;27815;43.410;11.852;2023-08-30T05:19:54;17.75;;;16.75;;
42146;SDS011;27815;43.410;11.852;2023-08-30T05:23:56;20.40;;;19.35;;
42146;SDS011;27815;43.410;11.852;2023-08-30T05:28:01;22.92;;;21.75;;
42146;SDS011;27815;43.410;11.852;2023-08-30T05:32:05;23.95;;;22.70;;
42146;SDS011;27815;43.410;11.852;2023-08-30T05:36:21;24.63;;;23.33;;
42146;SDS011;27815;43.410;11.852;2023-08-30T05:40:36;27.00;;;25.67;;
42146;SDS011;27815;43.410;11.852;2023-08-30T05:44:39;28.60;;;27.05;;
42146;SDS011;27815;43.410;11.852;2023-08-30T05:48:42;29.95;;;28.45;;
42146;SDS011;27815;43.410;11.852;2023-08-30T05:52:45;32.13;;;30.65;;
42146;SDS011;27815;43.410;11.852;2023-08-30T05:56:48;28.70;;;27.38;;
42146;SDS011;27815;43.410;11.852;2023-08-30T06:00:51;33.47;;;31.73;;
42146;SDS011;27815;43.410;11.852;2023-08-30T06:04:54;35.50;;;33.90;;
42146;SDS011;27815;43.410;11.852;2023-08-30T06:08:57;37.05;;;35.33;;
42146;SDS011;27815;43.410;11.852;2023-08-30T06:13:00;33.00;;;31.33;;
42146;SDS011;27815;43.410;11.852;2023-08-30T06:17:03;33.10;;;31.58;;
42146;SDS011;27815;43.410;11.852;2023-08-30T06:21:06;30.80;;;29.45;;
42146;SDS011;27815;43.410;11.852;2023-08-30T06:25:09;35.28;;;33.13;;
42146;SDS011;27815;43.410;11.852;2023-08-30T06:29:12;40.97;;;38.38;;
42146;SDS011;27815;43.410;11.852;2023-08-30T06:33:15;41.83;;;39.88;;
42146;SDS011;27815;43.410;11.852;2023-08-30T06:37:17;39.25;;;37.10;;
42146;SDS011;27815;43.410;11.852;2023-08-30T06:41:20;36.50;;;34.70;;
42146;SDS011;27815;43.410;11.852;2023-08-30T06:45:23;40.28;;;38.00;;
42146;SDS011;27815;43.410;11.852;2023-08-30T06:49:26;43.15;;;40.22;;
42146;SDS011;27815;43.410;11.852;2023-08-30T06:53:30;42.53;;;39.90;;
42146;SDS011;27815;43.410;11.852;2023-08-30T06:57:33;46.47;;;43.70;;
42146;SDS011;27815;43.410;11.852;2023-08-30T07:01:36;46.42;;;44.08;;
42146;SDS011;27815;43.410;11.852;2023-08-30T07:05:39;44.78;;;42.55;;
42146;SDS011;27815;43.410;11.852;2023-08-30T07:09:43;45.15;;;42.78;;
42146;SDS011;27815;43.410;11.852;2023-08-30T07:13:45;46.60;;;44.55;;
42146;SDS011;27815;43.410;11.852;2023-08-30T07:17:48;43.40;;;41.35;;
42146;SDS011;27815;43.410;11.852;2023-08-30T07:22:09;41.67;;;39.85;;
42146;SDS011;27815;43.410;11.852;2023-08-30T07:26:12;35.08;;;33.28;;
42146;SDS011;27815;43.410;11.852;2023-08-30T07:30:14;32.80;;;31.33;;
42146;SDS011;27815;43.410;11.852;2023-08-30T07:34:17;29.50;;;28.15;;
42146;SDS011;27815;43.410;11.852;2023-08-30T07:38:20;27.67;;;26.42;;
42146;SDS011;27815;43.410;11.852;2023-08-30T07:42:23;25.52;;;24.35;;
42146;SDS011;27815;43.410;11.852;2023-08-30T07:46:26;25.23;;;23.98;;
42146;SDS011;27815;43.410;11.852;2023-08-30T07:50:28;22.90;;;21.77;;
42146;SDS011;27815;43.410;11.852;2023-08-30T07:54:31;19.58;;;18.65;;
42146;SDS011;27815;43.410;11.852;2023-08-30T07:58:34;21.92;;;20.85;;
42146;SDS011;27815;43.410;11.852;2023-08-30T08:02:37;22.52;;;21.38;;
42146;SDS011;27815;43.410;11.852;2023-08-30T08:06:41;19.35;;;18.30;;
42146;SDS011;27815;43.410;11.852;2023-08-30T08:10:58;17.77;;;16.60;;
42146;SDS011;27815;43.410;11.852;2023-08-30T08:15:02;19.45;;;18.45;;
42146;SDS011;27815;43.410;11.852;2023-08-30T08:19:05;14.93;;;13.93;;
42146;SDS011;27815;43.410;11.852;2023-08-30T08:23:09;11.98;;;11.27;;
42146;SDS011;27815;43.410;11.852;2023-08-30T08:27:12;10.82;;;10.15;;
42146;SDS011;27815;43.410;11.852;2023-08-30T08:31:16;10.85;;;10.15;;
42146;SDS011;27815;43.410;11.852;2023-08-30T08:35:19;10.80;;;10.02;;
42146;SDS011;27815;43.410;11.852;2023-08-30T08:39:22;8.10;;;7.40;;
42146;SDS011;27815;43.410;11.852;2023-08-30T08:43:25;7.28;;;6.78;;
42146;SDS011;27815;43.410;11.852;2023-08-30T08:47:29;6.82;;;6.43;;
42146;SDS011;27815;43.410;11.852;2023-08-30T08:51:33;6.38;;;5.88;;
42146;SDS011;27815;43.410;11.852;2023-08-30T08:55:37;6.47;;;6.03;;
42146;SDS011;27815;43.410;11.852;2023-08-30T08:59:43;6.70;;;6.20;;
42146;SDS011;27815;43.410;11.852;2023-08-30T09:03:46;5.15;;;4.68;;
42146;SDS011;27815;43.410;11.852;2023-08-30T09:07:50;4.85;;;4.45;;
42146;SDS011;27815;43.410;11.852;2023-08-30T09:11:56;5.45;;;5.05;;
42146;SDS011;27815;43.410;11.852;2023-08-30T09:15:59;5.00;;;4.60;;
42146;SDS011;27815;43.410;11.852;2023-08-30T09:20:07;4.55;;;4.15;;
42146;SDS011;27815;43.410;11.852;2023-08-30T09:24:19;4.35;;;4.00;;
42146;SDS011;27815;43.410;11.852;2023-08-30T09:28:23;5.13;;;3.67;;
42146;SDS011;27815;43.410;11.852;2023-08-30T09:32:26;3.08;;;2.88;;
42146;SDS011;27815;43.410;11.852;2023-08-30T09:40:37;3.17;;;2.83;;
42146;SDS011;27815;43.410;11.852;2023-08-30T09:44:43;3.72;;;3.17;;
42146;SDS011;27815;43.410;11.852;2023-08-30T09:48:56;4.18;;;3.08;;
42146;SDS011;27815;43.410;11.852;2023-08-30T09:53:06;5.30;;;3.20;;
42146;SDS011;27815;43.410;11.852;2023-08-30T09:57:15;3.38;;;3.08;;
42146;SDS011;27815;43.410;11.852;2023-08-30T10:01:32;3.97;;;3.17;;
42146;SDS011;27815;43.410;11.852;2023-08-30T10:05:41;3.70;;;3.40;;
42146;SDS011;27815;43.410;11.852;2023-08-30T10:09:52;3.63;;;3.33;;
42146;SDS011;27815;43.410;11.852;2023-08-30T10:14:07;4.07;;;3.33;;
42146;SDS011;27815;43.410;11.852;2023-08-30T10:18:15;3.28;;;2.97;;
42146;SDS011;27815;43.410;11.852;2023-08-30T10:22:25;3.58;;;3.28;;
42146;SDS011;27815;43.410;11.852;2023-08-30T10:26:40;4.35;;;4.00;;
42146;SDS011;27815;43.410;11.852;2023-08-30T10:30:47;4.45;;;4.05;;
42146;SDS011;27815;43.410;11.852;2023-08-30T10:35:00;5.10;;;4.70;;
42146;SDS011;27815;43.410;11.852;2023-08-30T10:39:27;4.70;;;4.40;;
42146;SDS011;27815;43.410;11.852;2023-08-30T10:43:43;5.57;;;5.07;;
42146;SDS011;27815;43.410;11.852;2023-08-30T10:48:36;5.72;;;5.32;;
42146;SDS011;27815;43.410;11.852;2023-08-30T10:53:15;6.25;;;5.85;;
42146;SDS011;27815;43.410;11.852;2023-08-30T10:57:46;6.05;;;5.65;;
42146;SDS011;27815;43.410;11.852;2023-08-30T11:02:16;4.25;;;3.95;;
42146;SDS011;27815;43.410;11.852;2023-08-30T11:06:45;3.88;;;3.58;;
42146;SDS011;27815;43.410;11.852;2023-08-30T11:11:11;3.72;;;2.90;;
42146;SDS011;27815;43.410;11.852;2023-08-30T11:16:22;2.88;;;2.67;;
42146;SDS011;27815;43.410;11.852;2023-08-30T11:20:42;2.83;;;2.58;;
42146;SDS011;27815;43.410;11.852;2023-08-30T11:25:05;2.78;;;2.30;;
42146;SDS011;27815;43.410;11.852;2023-08-30T11:30:00;2.45;;;2.25;;
42146;SDS011;27815;43.410;11.852;2023-08-30T11:34:22;2.65;;;2.30;;
42146;SDS011;27815;43.410;11.852;2023-08-30T11:38:49;4.82;;;2.42;;
42146;SDS011;27815;43.410;11.852;2023-08-30T11:43:14;2.50;;;2.30;;
42146;SDS011;27815;43.410;11.852;2023-08-30T11:47:23;2.53;;;2.33;;
42146;SDS011;27815;43.410;11.852;2023-08-30T11:51:51;4.45;;;3.28;;
42146;SDS011;27815;43.410;11.852;2023-08-30T11:56:03;4.90;;;4.50;;
42146;SDS011;27815;43.410;11.852;2023-08-30T12:00:33;4.07;;;3.78;;
42146;SDS011;27815;43.410;11.852;2023-08-30T12:04:53;4.05;;;3.75;;
42146;SDS011;27815;43.410;11.852;2023-08-30T12:09:12;4.05;;;3.75;;
42146;SDS011;27815;43.410;11.852;2023-08-30T12:13:38;3.78;;;3.47;;
42146;SDS011;27815;43.410;11.852;2023-08-30T12:17:43;3.53;;;3.22;;
42146;SDS011;27815;43.410;11.852;2023-08-30T12:21:54;3.80;;;3.50;;
42146;SDS011;27815;43.410;11.852;2023-08-30T12:26:10;3.88;;;3.58;;
42146;SDS011;27815;43.410;11.852;2023-08-30T12:30:27;4.00;;;3.70;;
42146;SDS011;27815;43.410;11.852;2023-08-30T12:34:55;4.50;;;4.20;;
42146;SDS011;27815;43.410;11.852;2023-08-30T12:39:05;4.13;;;3.83;;
42146;SDS011;27815;43.410;11.852;2023-08-30T12:43:13;4.18;;;3.88;;
42146;SDS011;27815;43.410;11.852;2023-08-30T12:47:20;3.53;;;3.22;;
42146;SDS011;27815;43.410;11.852;2023-08-30T12:51:23;3.70;;;3.33;;
42146;SDS011;27815;43.410;11.852;2023-08-30T12:55:26;3.78;;;3.47;;
42146;SDS011;27815;43.410;11.852;2023-08-30T12:59:29;3.53;;;3.22;;
42146;SDS011;27815;43.410;11.852;2023-08-30T13:03:32;3.17;;;2.97;;
42146;SDS011;27815;43.410;11.852;2023-08-30T13:07:35;5.50;;;3.47;;
42146;SDS011;27815;43.410;11.852;2023-08-30T13:11:38;3.30;;;3.08;;
42146;SDS011;27815;43.410;11.852;2023-08-30T13:15:41;3.40;;;3.10;;
42146;SDS011;27815;43.410;11.852;2023-08-30T13:19:43;2.80;;;2.58;;
42146;SDS011;27815;43.410;11.852;2023-08-30T13:23:46;3.15;;;2.33;;
42146;SDS011;27815;43.410;11.852;2023-08-30T13:27:49;2.00;;;1.70;;
42146;SDS011;27815;43.410;11.852;2023-08-30T13:31:54;2.03;;;1.70;;
42146;SDS011;27815;43.410;11.852;2023-08-30T13:35:57;2.03;;;1.80;;
42146;SDS011;27815;43.410;11.852;2023-08-30T13:40:00;1.70;;;1.60;;
42146;SDS011;27815;43.410;11.852;2023-08-30T13:44:03;1.70;;;1.60;;
42146;SDS011;27815;43.410;11.852;2023-08-30T13:48:09;1.93;;;1.70;;
42146;SDS011;27815;43.410;11.852;2023-08-30T13:52:12;2.80;;;1.80;;
42146;SDS011;27815;43.410;11.852;2023-08-30T13:56:15;2.58;;;2.38;;
42146;SDS011;27815;43.410;11.852;2023-08-30T14:00:19;4.10;;;3.80;;
42146;SDS011;27815;43.410;11.852;2023-08-30T14:04:22;3.92;;;3.63;;
42146;SDS011;27815;43.410;11.852;2023-08-30T14:08:26;4.00;;;3.70;;
42146;SDS011;27815;43.410;11.852;2023-08-30T14:12:31;4.07;;;3.78;;
42146;SDS011;27815;43.410;11.852;2023-08-30T14:16:36;3.85;;;3.55;;
42146;SDS011;27815;43.410;11.852;2023-08-30T14:20:40;4.20;;;3.90;;
42146;SDS011;27815;43.410;11.852;2023-08-30T14:24:43;4.30;;;3.90;;
42146;SDS011;27815;43.410;11.852;2023-08-30T14:29:05;4.45;;;4.15;;
42146;SDS011;27815;43.410;11.852;2023-08-30T14:33:08;4.72;;;4.22;;
42146;SDS011;27815;43.410;11.852;2023-08-30T14:37:14;3.08;;;2.78;;
42146;SDS011;27815;43.410;11.852;2023-08-30T14:41:18;2.30;;;2.10;;
42146;SDS011;27815;43.410;11.852;2023-08-30T14:45:27;2.60;;;2.40;;
42146;SDS011;27815;43.410;11.852;2023-08-30T14:49:47;2.83;;;2.63;;
42146;SDS011;27815;43.410;11.852;2023-08-30T14:53:50;3.30;;;3.05;;
42146;SDS011;27815;43.410;11.852;2023-08-30T14:57:55;3.03;;;2.83;;
42146;SDS011;27815;43.410;11.852;2023-08-30T15:02:02;4.03;;;3.25;;
42146;SDS011;27815;43.410;11.852;2023-08-30T15:06:05;3.40;;;3.10;;
42146;SDS011;27815;43.410;11.852;2023-08-30T15:10:10;3.53;;;3.22;;
42146;SDS011;27815;43.410;11.852;2023-08-30T15:14:19;3.40;;;3.10;;
42146;SDS011;27815;43.410;11.852;2023-08-30T15:18:27;3.70;;;3.40;;
42146;SDS011;27815;43.410;11.852;2023-08-30T15:22:44;3.90;;;3.42;;
42146;SDS011;27815;43.410;11.852;2023-08-30T15:27:45;5.10;;;3.40;;
42146;SDS011;27815;43.410;11.852;2023-08-30T15:31:48;3.20;;;2.90;;
42146;SDS011;27815;43.410;11.852;2023-08-30T15:35:56;3.53;;;2.53;;
42146;SDS011;27815;43.410;11.852;2023-08-30T15:40:09;3.80;;;2.17;;
42146;SDS011;27815;43.410;11.852;2023-08-30T15:44:18;3.03;;;1.83;;
42146;SDS011;27815;43.410;11.852;2023-08-30T15:48:23;1.92;;;1.80;;
42146;SDS011;27815;43.410;11.852;2023-08-30T15:52:27;2.17;;;1.98;;
42146;SDS011;27815;43.410;11.852;2023-08-30T15:56:33;2.28;;;2.08;;
42146;SDS011;27815;43.410;11.852;2023-08-30T16:00:46;2.67;;;2.35;;
42146;SDS011;27815;43.410;11.852;2023-08-30T16:04:51;2.55;;;2.35;;
42146;SDS011;27815;43.410;11.852;2023-08-30T16:08:55;2.60;;;2.40;;
42146;SDS011;27815;43.410;11.852;2023-08-30T16:12:58;3.30;;;2.97;;
42146;SDS011;27815;43.410;11.852;2023-08-30T16:17:04;3.08;;;2.88;;
42146;SDS011;27815;43.410;11.852;2023-08-30T16:21:07;3.10;;;2.90;;
42146;SDS011;27815;43.410;11.852;2023-08-30T16:25:10;2.85;;;2.65;;
42146;SDS011;27815;43.410;11.852;2023-08-30T16:29:13;3.10;;;2.88;;
42146;SDS011;27815;43.410;11.852;2023-08-30T16:33:16;2.83;;;2.63;;
42146;SDS011;27815;43.410;11.852;2023-08-30T16:37:22;3.03;;;2.83;;
42146;SDS011;27815;43.410;11.852;2023-08-30T16:41:25;3.00;;;2.70;;
42146;SDS011;27815;43.410;11.852;2023-08-30T16:45:28;3.10;;;2.90;;
42146;SDS011;27815;43.410;11.852;2023-08-30T16:49:32;3.50;;;3.20;;
42146;SDS011;27815;43.410;11.852;2023-08-30T16:53:35;3.50;;;3.20;;
42146;SDS011;27815;43.410;11.852;2023-08-30T16:57:38;5.18;;;3.17;;
42146;SDS011;27815;43.410;11.852;2023-08-30T17:01:41;3.13;;;2.90;;
42146;SDS011;27815;43.410;11.852;2023-08-30T17:05:44;3.03;;;2.83;;
42146;SDS011;27815;43.410;11.852;2023-08-30T17:09:47;5.32;;;3.22;;
42146;SDS011;27815;43.410;11.852;2023-08-30T17:13:50;3.47;;;3.17;;
42146;SDS011;27815;43.410;11.852;2023-08-30T17:17:53;5.03;;;3.33;;
42146;SDS011;27815;43.410;11.852;2023-08-30T17:21:58;3.15;;;2.88;;
42146;SDS011;27815;43.410;11.852;2023-08-30T17:26:05;5.25;;;3.08;;
42146;SDS011;27815;43.410;11.852;2023-08-30T17:31:23;3.38;;;3.08;;
42146;SDS011;27815;43.410;11.852;2023-08-30T17:35:38;5.80;;;3.97;;
42146;SDS011;27815;43.410;11.852;2023-08-30T17:40:18;3.63;;;3.33;;
42146;SDS011;27815;43.410;11.852;2023-08-30T17:44:59;3.85;;;3.55;;
42146;SDS011;27815;43.410;11.852;2023-08-30T17:49:18;4.22;;;3.83;;
42146;SDS011;27815;43.410;11.852;2023-08-30T17:53:34;4.10;;;3.70;;
42146;SDS011;27815;43.410;11.852;2023-08-30T17:57:55;10.45;;;6.80;;
42146;SDS011;27815;43.410;11.852;2023-08-30T18:02:10;4.40;;;4.00;;
42146;SDS011;27815;43.410;11.852;2023-08-30T18:06:43;4.38;;;3.97;;
42146;SDS011;27815;43.410;11.852;2023-08-30T18:13:04;4.57;;;4.28;;
42146;SDS011;27815;43.410;11.852;2023-08-30T18:18:23;5.43;;;4.93;;
42146;SDS011;27815;43.410;11.852;2023-08-30T18:32:12;5.00;;;4.47;;
42146;SDS011;27815;43.410;11.852;2023-08-30T18:36:28;4.65;;;4.25;;
42146;SDS011;27815;43.410;11.852;2023-08-30T18:41:37;5.55;;;5.05;;
42146;SDS011;27815;43.410;11.852;2023-08-30T18:56:25;5.40;;;4.90;;
42146;SDS011;27815;43.410;11.852;2023-08-30T19:00:29;6.30;;;5.90;;
42146;SDS011;27815;43.410;11.852;2023-08-30T19:04:33;6.22;;;5.63;;
42146;SDS011;27815;43.410;11.852;2023-08-30T19:08:36;6.43;;;5.82;;
42146;SDS011;27815;43.410;11.852;2023-08-30T19:12:39;5.93;;;5.47;;
42146;SDS011;27815;43.410;11.852;2023-08-30T19:16:42;6.43;;;5.88;;
42146;SDS011;27815;43.410;11.852;2023-08-30T19:20:45;5.70;;;5.20;;
42146;SDS011;27815;43.410;11.852;2023-08-30T19:24:53;6.20;;;5.78;;
42146;SDS011;27815;43.410;11.852;2023-08-30T19:28:58;6.22;;;5.68;;
42146;SDS011;27815;43.410;11.852;2023-08-30T19:33:02;5.57;;;5.18;;
42146;SDS011;27815;43.410;11.852;2023-08-30T19:57:05;7.95;;;5.65;;
42146;SDS011;27815;43.410;11.852;2023-08-30T20:01:30;6.82;;;6.43;;
42146;SDS011;27815;43.410;11.852;2023-08-30T20:06:04;7.78;;;6.30;;
42146;SDS011;27815;43.410;11.852;2023-08-30T20:10:15;7.28;;;6.75;;
42146;SDS011;27815;43.410;11.852;2023-08-30T20:19:13;8.48;;;7.90;;
42146;SDS011;27815;43.410;11.852;2023-08-30T21:14:30;10.80;;;10.15;;
42146;SDS011;27815;43.410;11.852;2023-08-30T21:47:49;10.52;;;9.63;;
42146;SDS011;27815;43.410;11.852;2023-08-30T21:58:12;11.55;;;9.10;;
42146;SDS011;27815;43.410;11.852;2023-08-30T22:10:29;8.32;;;7.70;;
42146;SDS011;27815;43.410;11.852;2023-08-30T22:14:42;10.88;;;10.07;;
42146;SDS011;27815;43.410;11.852;2023-08-30T22:18:51;12.38;;;11.55;;
42146;SDS011;27815;43.410;11.852;2023-08-30T22:22:54;13.20;;;12.20;;
42146;SDS011;27815;43.410;11.852;2023-08-30T22:43:30;10.95;;;10.35;;
42146;SDS011;27815;43.410;11.852;2023-08-30T22:57:34;11.00;;;10.30;;
42146;SDS011;27815;43.410;11.852;2023-08-30T23:02:23;12.23;;;11.30;;
42146;SDS011;27815;43.410;11.852;2023-08-30T23:07:22;9.60;;;8.90;;
42146;SDS011;27815;43.410;11.852;2023-08-30T23:33:22;5.35;;;4.78;;
